createdAt,value
2023-12-13T00:01:35.199Z,19.92
2023-12-13T00:04:04.877Z,22.73
2023-12-13T00:06:32.684Z,26.17
2023-12-13T00:09:00.413Z,23.92
2023-12-13T00:11:28.182Z,20.30
2023-12-13T00:13:55.992Z,16.25
2023-12-13T00:16:24.526Z,18.65
2023-12-13T00:18:52.591Z,22.33
2023-12-13T00:21:24.808Z,23.13
2023-12-13T00:23:52.792Z,26.73
2023-12-13T00:26:21.250Z,22.35
2023-12-13T00:28:49.079Z,27.70
2023-12-13T00:31:16.945Z,18.77
2023-12-13T00:33:44.774Z,22.67
2023-12-13T00:36:12.654Z,21.35
2023-12-13T00:38:41.803Z,19.35
2023-12-13T00:41:09.610Z,18.00
2023-12-13T00:43:37.453Z,24.15
2023-12-13T00:46:06.577Z,18.92
2023-12-13T00:48:34.882Z,22.23
2023-12-13T00:51:02.755Z,19.50
2023-12-13T00:53:30.621Z,21.50
2023-12-13T00:55:59.753Z,22.30
2023-12-13T00:58:27.519Z,18.10
2023-12-13T01:00:55.591Z,21.42
2023-12-13T01:03:23.375Z,20.08
2023-12-13T01:05:51.126Z,22.00
2023-12-13T01:08:18.834Z,21.80
2023-12-13T01:10:46.720Z,20.42
2023-12-13T01:13:15.809Z,23.17
2023-12-13T01:15:43.564Z,19.25
2023-12-13T01:18:11.427Z,26.42
2023-12-13T01:20:39.255Z,19.95
2023-12-13T01:23:07.022Z,21.20
2023-12-13T01:25:34.835Z,22.33
2023-12-13T01:28:02.711Z,20.23
2023-12-13T01:30:31.918Z,21.80
2023-12-13T01:32:59.752Z,21.08
2023-12-13T01:35:27.806Z,21.15
2023-12-13T01:37:55.713Z,17.48
2023-12-13T01:40:23.574Z,21.10
2023-12-13T01:42:51.350Z,23.75
2023-12-13T01:45:19.085Z,30.80
2023-12-13T01:47:48.265Z,20.20
2023-12-13T01:50:16.121Z,22.50
2023-12-13T01:52:44.354Z,18.75
2023-12-13T01:55:12.780Z,25.38
2023-12-13T01:57:42.073Z,21.77
2023-12-13T02:00:10.592Z,19.33
2023-12-13T02:02:38.502Z,22.00
2023-12-13T02:05:09.833Z,18.77
2023-12-13T02:07:38.962Z,19.30
2023-12-13T02:12:36.929Z,17.90
2023-12-13T02:15:05.984Z,15.82
2023-12-13T02:17:34.296Z,17.75
2023-12-13T02:20:02.249Z,18.00
2023-12-13T02:22:31.428Z,18.40
2023-12-13T02:25:01.087Z,14.98
2023-12-13T02:27:30.984Z,23.58
2023-12-13T02:29:59.189Z,18.08
2023-12-13T02:32:26.980Z,16.55
2023-12-13T02:34:55.497Z,15.27
2023-12-13T02:37:23.469Z,21.20
2023-12-13T02:39:52.877Z,19.05
2023-12-13T02:42:20.666Z,14.77
2023-12-13T02:44:48.476Z,18.02
2023-12-13T02:47:16.241Z,19.00
2023-12-13T02:49:44.008Z,20.63
2023-12-13T02:52:11.823Z,18.10
2023-12-13T02:54:39.608Z,18.75
2023-12-13T02:57:08.721Z,15.68
2023-12-13T02:59:36.457Z,16.60
2023-12-13T03:02:04.539Z,14.63
2023-12-13T03:04:32.534Z,22.80
2023-12-13T03:07:01.083Z,21.83
2023-12-13T03:09:28.815Z,16.55
2023-12-13T03:11:56.598Z,20.15
2023-12-13T03:14:26.884Z,18.95
2023-12-13T03:16:54.692Z,19.02
2023-12-13T03:19:22.643Z,18.92
2023-12-13T03:21:50.544Z,19.15
2023-12-13T03:24:18.371Z,22.00
2023-12-13T03:26:46.183Z,22.85
2023-12-13T03:29:13.977Z,19.33
2023-12-13T03:31:43.103Z,19.95
2023-12-13T03:34:11.056Z,20.98
2023-12-13T03:36:38.930Z,21.45
2023-12-13T03:39:08.458Z,22.63
2023-12-13T03:41:36.546Z,24.00
2023-12-13T03:44:04.479Z,23.33
2023-12-13T03:46:32.437Z,23.30
2023-12-13T03:49:01.799Z,21.08
2023-12-13T03:53:57.267Z,18.17
2023-12-13T03:56:25.036Z,25.67
2023-12-13T03:58:52.767Z,22.55
2023-12-13T04:01:20.594Z,22.80
2023-12-13T04:03:48.469Z,23.35
2023-12-13T04:06:17.740Z,27.25
2023-12-13T04:08:45.488Z,20.52
2023-12-13T04:11:13.241Z,24.50
2023-12-13T04:13:40.984Z,23.30
2023-12-13T04:16:09.861Z,24.70
2023-12-13T04:18:38.605Z,23.80
2023-12-13T04:21:07.110Z,23.08
2023-12-13T04:23:36.286Z,24.50
2023-12-13T04:26:04.210Z,23.48
2023-12-13T04:28:31.932Z,27.45
2023-12-13T04:30:59.741Z,26.38
2023-12-13T04:33:27.796Z,20.20
2023-12-13T04:35:58.455Z,21.60
2023-12-13T04:38:26.267Z,22.77
2023-12-13T04:40:55.465Z,28.17
2023-12-13T04:43:23.465Z,27.00
2023-12-13T04:45:52.304Z,24.45
2023-12-13T04:48:20.214Z,21.23
2023-12-13T04:50:48.066Z,26.38
2023-12-13T04:53:15.811Z,21.38
2023-12-13T04:55:43.583Z,22.17
2023-12-13T04:58:12.773Z,24.80
2023-12-13T05:00:40.578Z,21.65
2023-12-13T05:03:08.871Z,17.40
2023-12-13T05:05:36.800Z,19.48
2023-12-13T05:08:05.463Z,18.20
2023-12-13T05:10:33.274Z,24.33
2023-12-13T05:13:01.045Z,17.60
2023-12-13T05:15:30.119Z,19.48
2023-12-13T05:17:57.892Z,18.50
2023-12-13T05:20:25.702Z,16.13
2023-12-13T05:22:53.599Z,17.90
2023-12-13T05:25:21.500Z,18.13
2023-12-13T05:27:49.314Z,19.73
2023-12-13T05:30:19.148Z,17.48
2023-12-13T05:32:48.356Z,14.98
2023-12-13T05:35:16.322Z,14.48
2023-12-13T05:37:44.251Z,15.95
2023-12-13T05:40:13.921Z,15.77
2023-12-13T05:42:42.174Z,11.18
2023-12-13T05:45:10.703Z,12.82
2023-12-13T05:47:38.745Z,13.35
2023-12-13T05:50:09.350Z,13.88
2023-12-13T05:52:37.932Z,16.88
2023-12-13T05:55:06.479Z,15.63
2023-12-13T05:57:34.505Z,13.73
2023-12-13T06:00:03.030Z,13.40
2023-12-13T06:02:38.467Z,11.95
2023-12-13T06:05:24.214Z,16.23
2023-12-13T06:07:52.485Z,11.35
2023-12-13T06:10:20.731Z,12.57
2023-12-13T06:12:52.015Z,16.13
2023-12-13T06:15:20.003Z,16.05
2023-12-13T06:17:47.896Z,16.38
2023-12-13T06:20:15.850Z,13.63
2023-12-13T06:22:45.137Z,10.85
2023-12-13T06:25:13.017Z,14.18
2023-12-13T06:27:40.828Z,16.20
2023-12-13T06:30:11.621Z,12.77
2023-12-13T06:32:40.371Z,16.10
2023-12-13T06:35:08.953Z,15.27
2023-12-13T06:37:36.932Z,16.02
2023-12-13T06:40:07.605Z,20.38
2023-12-13T06:42:35.379Z,22.58
2023-12-13T06:45:04.026Z,17.20
2023-12-13T06:47:32.996Z,15.48
2023-12-13T06:50:01.200Z,16.05
2023-12-13T06:52:29.366Z,14.57
2023-12-13T06:54:57.525Z,19.63
2023-12-13T06:57:26.779Z,17.45
2023-12-13T06:59:54.560Z,18.20
2023-12-13T07:02:22.289Z,17.05
2023-12-13T07:04:50.229Z,16.35
2023-12-13T07:07:18.112Z,16.38
2023-12-13T07:09:46.596Z,17.15
2023-12-13T07:12:14.367Z,19.75
2023-12-13T07:14:43.497Z,22.13
2023-12-13T07:17:11.266Z,18.45
2023-12-13T07:19:39.612Z,21.65
2023-12-13T07:22:07.419Z,22.63
2023-12-13T07:24:35.227Z,19.20
2023-12-13T07:27:03.688Z,20.30
2023-12-13T07:29:33.611Z,23.80
2023-12-13T07:32:02.807Z,22.52
2023-12-13T07:34:30.681Z,18.80
2023-12-13T07:36:58.634Z,17.98
2023-12-13T07:39:27.292Z,21.80
2023-12-13T07:41:56.033Z,18.67
2023-12-13T07:44:23.863Z,18.73
2023-12-13T07:46:51.738Z,18.15
2023-12-13T07:49:21.151Z,20.92
2023-12-13T07:51:48.990Z,19.48
2023-12-13T07:54:17.613Z,23.30
2023-12-13T07:56:46.922Z,18.27
2023-12-13T07:59:14.734Z,22.67
2023-12-13T08:01:42.534Z,18.63
2023-12-13T08:04:10.434Z,19.58
2023-12-13T08:06:39.560Z,19.95
2023-12-13T08:09:10.341Z,20.13
2023-12-13T08:11:38.241Z,20.35
2023-12-13T08:14:06.141Z,20.17
2023-12-13T08:16:33.997Z,23.08
2023-12-13T08:19:01.993Z,19.83
2023-12-13T08:21:29.846Z,19.25
2023-12-13T08:23:59.030Z,21.42
2023-12-13T08:26:27.190Z,17.73
2023-12-13T08:29:02.420Z,22.58
2023-12-13T08:31:34.792Z,19.55
2023-12-13T08:34:02.752Z,25.17
2023-12-13T08:36:30.654Z,22.45
2023-12-13T08:38:59.729Z,21.35
2023-12-13T08:41:29.058Z,21.73
2023-12-13T08:46:25.067Z,23.35
2023-12-13T08:48:52.977Z,18.50
2023-12-13T08:51:20.924Z,22.70
2023-12-13T08:53:49.991Z,21.23
2023-12-13T08:56:19.196Z,21.20
2023-12-13T08:58:46.958Z,23.27
2023-12-13T09:01:15.907Z,25.33
2023-12-13T09:03:44.478Z,27.40
2023-12-13T09:06:12.254Z,25.42
2023-12-13T09:08:40.051Z,24.35
2023-12-13T09:11:07.935Z,24.13
2023-12-13T09:13:37.038Z,22.52
2023-12-13T09:16:05.735Z,22.25
2023-12-13T09:18:33.684Z,28.30
2023-12-13T09:21:01.603Z,26.50
2023-12-13T09:23:30.557Z,25.58
2023-12-13T09:26:00.315Z,25.50
2023-12-13T09:28:30.251Z,24.73
2023-12-13T09:30:59.821Z,32.83
2023-12-13T09:33:27.746Z,28.98
2023-12-13T09:35:55.613Z,28.35
2023-12-13T09:38:23.344Z,24.27
2023-12-13T09:40:52.389Z,28.73
2023-12-13T09:43:21.151Z,23.70
2023-12-13T09:45:52.484Z,25.42
2023-12-13T09:48:23.871Z,31.80
2023-12-13T09:50:54.004Z,29.67
2023-12-13T09:53:22.903Z,29.77
2023-12-13T09:55:51.662Z,25.52
2023-12-13T09:58:19.692Z,27.27
2023-12-13T10:00:47.514Z,27.65
2023-12-13T10:03:16.116Z,24.92
2023-12-13T10:05:46.399Z,28.30
2023-12-13T10:08:14.229Z,24.98
2023-12-13T10:10:42.142Z,25.08
2023-12-13T10:13:11.202Z,31.58
2023-12-13T10:15:39.823Z,32.78
2023-12-13T10:18:07.687Z,30.15
2023-12-13T10:20:37.139Z,29.02
2023-12-13T10:23:07.131Z,29.80
2023-12-13T10:25:38.497Z,24.75
2023-12-13T10:28:06.613Z,20.70
2023-12-13T10:30:35.163Z,32.85
2023-12-13T10:33:02.942Z,26.48
2023-12-13T10:35:30.738Z,29.00
2023-12-13T10:38:00.222Z,26.98
2023-12-13T10:40:29.577Z,28.88
2023-12-13T10:47:59.431Z,35.65
2023-12-13T10:50:28.861Z,24.25
2023-12-13T10:52:56.960Z,22.52
2023-12-13T10:55:25.984Z,20.58
2023-12-13T10:57:55.619Z,25.65
2023-12-13T11:00:26.981Z,23.13
2023-12-13T11:03:00.186Z,25.40
2023-12-13T11:05:28.043Z,24.50
2023-12-13T11:07:55.991Z,23.17
2023-12-13T11:10:24.280Z,26.20
2023-12-13T11:12:53.299Z,26.90
2023-12-13T11:15:22.413Z,20.45
2023-12-13T11:17:55.193Z,21.77
2023-12-13T11:20:23.752Z,26.15
2023-12-13T11:22:51.650Z,23.23
2023-12-13T11:25:19.755Z,21.70
2023-12-13T11:27:54.417Z,31.40
2023-12-13T11:30:24.036Z,26.02
2023-12-13T11:32:52.818Z,23.35
2023-12-13T11:35:22.188Z,17.90
2023-12-13T11:40:20.816Z,21.48
2023-12-13T11:42:49.135Z,24.98
2023-12-13T11:45:20.441Z,21.48
2023-12-13T11:47:52.032Z,31.65
2023-12-13T11:50:22.443Z,27.83
2023-12-13T11:52:50.400Z,26.42
2023-12-13T11:55:20.447Z,27.92
2023-12-13T11:57:50.798Z,23.13
2023-12-13T12:00:19.882Z,23.80
2023-12-13T12:02:49.103Z,21.10
2023-12-13T12:05:17.299Z,23.25
2023-12-13T12:07:45.199Z,23.25
2023-12-13T12:10:13.097Z,24.50
2023-12-13T12:12:40.821Z,21.60
2023-12-13T12:15:09.251Z,23.77
2023-12-13T12:17:37.759Z,24.70
2023-12-13T12:20:08.657Z,28.50
2023-12-13T12:22:37.849Z,26.80
2023-12-13T12:25:06.674Z,36.60
2023-12-13T12:27:36.897Z,36.63
2023-12-13T12:30:05.929Z,26.33
2023-12-13T12:32:33.751Z,42.33
2023-12-13T12:35:04.016Z,37.35
2023-12-13T12:37:33.669Z,33.17
2023-12-13T12:40:01.672Z,30.38
2023-12-13T12:42:29.618Z,25.23
2023-12-13T12:44:57.340Z,23.20
2023-12-13T12:47:25.165Z,20.63
2023-12-13T12:49:54.106Z,22.38
2023-12-13T12:52:22.109Z,21.13
2023-12-13T12:54:51.556Z,20.92
2023-12-13T12:57:19.789Z,20.67
2023-12-13T12:59:51.599Z,19.98
2023-12-13T13:02:20.297Z,36.90
2023-12-13T13:04:48.564Z,23.17
2023-12-13T13:07:16.800Z,25.30
2023-12-13T13:09:44.553Z,24.42
2023-12-13T13:12:13.763Z,22.13
2023-12-13T13:14:41.520Z,22.67
2023-12-13T13:17:09.374Z,22.20
2023-12-13T13:19:37.222Z,22.50
2023-12-13T13:22:08.510Z,26.65
2023-12-13T13:24:43.085Z,26.75
2023-12-13T13:27:17.857Z,31.10
2023-12-13T13:29:51.476Z,31.80
2023-12-13T13:32:19.678Z,23.10
2023-12-13T13:34:47.481Z,23.00
2023-12-13T13:37:15.772Z,19.95
2023-12-13T13:39:43.524Z,21.15
2023-12-13T13:42:12.145Z,28.50
2023-12-13T13:44:41.872Z,27.30
2023-12-13T13:47:11.216Z,24.55
2023-12-13T13:49:39.471Z,29.90
2023-12-13T13:52:07.790Z,25.90
2023-12-13T13:54:36.607Z,33.95
2023-12-13T13:57:05.552Z,30.48
2023-12-13T13:59:33.493Z,25.02
2023-12-13T14:02:01.361Z,22.20
2023-12-13T14:04:30.647Z,22.73
2023-12-13T14:09:26.176Z,21.63
2023-12-13T14:11:55.804Z,25.25
2023-12-13T14:14:24.995Z,23.30
2023-12-13T14:16:52.788Z,20.45
2023-12-13T14:19:20.901Z,27.98
2023-12-13T14:21:50.170Z,24.13
2023-12-13T14:24:17.945Z,21.98
2023-12-13T14:26:45.739Z,22.77
2023-12-13T14:29:14.203Z,26.42
2023-12-13T14:31:42.087Z,23.83
2023-12-13T14:34:09.948Z,24.88
2023-12-13T14:36:37.813Z,25.90
2023-12-13T14:39:07.208Z,22.50
2023-12-13T14:41:35.007Z,23.17
2023-12-13T14:44:02.960Z,27.17
2023-12-13T14:46:30.796Z,28.60
2023-12-13T14:48:58.618Z,33.45
2023-12-13T14:51:26.425Z,62.17
2023-12-13T14:53:57.616Z,45.90
2023-12-13T14:56:27.407Z,39.30
2023-12-13T14:58:55.266Z,29.73
2023-12-13T15:01:23.983Z,31.08
2023-12-13T15:03:52.344Z,24.17
2023-12-13T15:06:20.712Z,27.70
2023-12-13T15:08:50.394Z,28.65
2023-12-13T15:11:18.146Z,27.65
2023-12-13T15:13:47.375Z,27.88
2023-12-13T15:16:15.159Z,28.92
2023-12-13T15:18:43.027Z,20.40
2023-12-13T15:21:10.846Z,30.00
2023-12-13T15:23:38.635Z,29.23
2023-12-13T15:26:07.096Z,26.52
2023-12-13T15:28:37.171Z,20.25
2023-12-13T15:31:08.590Z,31.15
2023-12-13T15:33:36.757Z,33.95
2023-12-13T15:36:05.156Z,46.00
2023-12-13T15:38:33.707Z,41.22
2023-12-13T15:41:01.559Z,29.05
2023-12-13T15:43:29.749Z,23.52
2023-12-13T15:45:58.685Z,28.35
2023-12-13T15:48:27.973Z,22.98
2023-12-13T15:53:23.465Z,29.13
2023-12-13T15:55:51.327Z,30.27
2023-12-13T15:58:19.152Z,25.92
2023-12-13T16:00:49.002Z,33.17
2023-12-13T16:03:17.237Z,22.52
2023-12-13T16:05:46.427Z,34.30
2023-12-13T16:08:14.525Z,36.78
2023-12-13T16:10:45.169Z,30.88
2023-12-13T16:13:13.033Z,36.08
2023-12-13T16:15:40.771Z,38.63
2023-12-13T16:18:08.700Z,37.95
2023-12-13T16:20:36.536Z,31.58
2023-12-13T16:23:05.643Z,27.90
2023-12-13T16:25:33.433Z,30.63
2023-12-13T16:28:03.109Z,26.70
2023-12-13T16:30:32.681Z,29.35
2023-12-13T16:33:00.509Z,30.00
2023-12-13T16:35:28.278Z,31.40
2023-12-13T16:37:56.221Z,19.90
2023-12-13T16:40:25.375Z,24.65
2023-12-13T16:42:54.301Z,29.33
2023-12-13T16:45:22.147Z,30.63
2023-12-13T16:47:49.926Z,34.30
2023-12-13T16:50:17.819Z,35.13
2023-12-13T16:52:45.652Z,35.95
2023-12-13T16:55:13.464Z,42.53
2023-12-13T16:57:42.597Z,40.10
2023-12-13T17:00:12.334Z,36.92
2023-12-13T17:02:44.259Z,28.88
2023-12-13T17:05:14.121Z,29.38
2023-12-13T17:07:43.604Z,25.55
2023-12-13T17:10:11.832Z,23.13
2023-12-13T17:12:39.757Z,21.90
2023-12-13T17:15:09.629Z,26.13
2023-12-13T17:17:37.623Z,24.98
2023-12-13T17:20:06.566Z,16.13
2023-12-13T17:22:34.789Z,25.33
2023-12-13T17:25:02.751Z,22.48
2023-12-13T17:27:30.773Z,21.58
2023-12-13T17:29:58.551Z,18.17
2023-12-13T17:32:28.480Z,16.13
2023-12-13T17:34:56.331Z,16.27
2023-12-13T17:37:24.110Z,22.38
2023-12-13T17:39:52.660Z,20.38
2023-12-13T17:42:20.436Z,25.95
2023-12-13T17:44:49.168Z,11.65
2023-12-13T17:47:17.657Z,18.25
2023-12-13T17:49:47.092Z,21.25
2023-12-13T17:54:43.171Z,18.95
2023-12-13T17:57:13.812Z,13.40
2023-12-13T17:59:42.740Z,15.13
2023-12-13T18:02:12.432Z,23.63
2023-12-13T18:04:42.535Z,13.32
2023-12-13T18:07:12.205Z,14.98
2023-12-13T18:09:40.003Z,16.88
2023-12-13T18:12:09.113Z,13.13
2023-12-13T18:14:37.008Z,17.52
2023-12-13T18:17:05.285Z,13.85
2023-12-13T18:19:33.150Z,11.90
2023-12-13T18:22:00.968Z,24.98
2023-12-13T18:24:30.045Z,28.00
2023-12-13T18:26:58.269Z,19.52
2023-12-13T18:29:26.160Z,13.55
2023-12-13T18:31:55.137Z,15.63
2023-12-13T18:34:23.212Z,18.92
2023-12-13T18:36:51.037Z,21.42
2023-12-13T18:39:19.010Z,23.90
2023-12-13T18:41:50.197Z,20.15
2023-12-13T18:44:18.032Z,19.00
2023-12-13T18:46:46.089Z,17.67
2023-12-13T18:49:13.914Z,22.77
2023-12-13T18:51:41.754Z,20.85
2023-12-13T18:54:09.499Z,19.77
2023-12-13T18:56:37.813Z,26.70
2023-12-13T18:59:07.020Z,22.20
2023-12-13T19:01:36.010Z,23.25
2023-12-13T19:04:04.222Z,19.70
2023-12-13T19:06:32.069Z,18.40
2023-12-13T19:08:59.912Z,23.50
2023-12-13T19:11:27.702Z,23.95
2023-12-13T19:13:55.545Z,19.40
2023-12-13T19:16:29.735Z,17.80
2023-12-13T19:18:57.987Z,25.02
2023-12-13T19:21:25.837Z,17.30
2023-12-13T19:23:53.583Z,21.63
2023-12-13T19:26:21.414Z,12.20
2023-12-13T19:28:49.277Z,14.30
2023-12-13T19:31:17.017Z,19.67
2023-12-13T19:33:46.277Z,17.48
2023-12-13T19:36:14.254Z,12.25
2023-12-13T19:38:41.993Z,12.48
2023-12-13T19:41:09.844Z,13.10
2023-12-13T19:43:40.397Z,14.23
2023-12-13T19:46:09.294Z,15.63
2023-12-13T19:48:37.245Z,16.98
2023-12-13T19:51:06.687Z,12.57
2023-12-13T19:53:34.970Z,17.63
2023-12-13T19:56:02.867Z,18.42
2023-12-13T19:58:30.993Z,16.92
2023-12-13T20:00:59.922Z,18.65
2023-12-13T20:03:27.816Z,13.98
2023-12-13T20:05:55.685Z,13.00
2023-12-13T20:08:24.905Z,13.88
2023-12-13T20:10:52.773Z,18.45
2023-12-13T20:13:20.572Z,18.40
2023-12-13T20:15:48.396Z,16.70
2023-12-13T20:18:16.324Z,19.35
2023-12-13T20:20:44.113Z,20.95
2023-12-13T20:23:11.945Z,23.17
2023-12-13T20:25:41.585Z,14.57
2023-12-13T20:28:09.418Z,16.98
2023-12-13T20:30:37.286Z,17.48
2023-12-13T20:33:06.072Z,13.65
2023-12-13T20:35:33.966Z,14.20
2023-12-13T20:38:02.111Z,18.10
2023-12-13T20:40:30.695Z,17.05
2023-12-13T20:42:59.865Z,14.35
2023-12-13T20:45:27.990Z,20.40
2023-12-13T20:47:55.844Z,21.80
2023-12-13T20:50:24.178Z,15.80
2023-12-13T20:52:52.100Z,18.85
2023-12-13T20:55:19.879Z,16.50
2023-12-13T20:57:47.670Z,15.52
2023-12-13T21:00:17.336Z,18.95
2023-12-13T21:02:45.029Z,17.55
2023-12-13T21:05:13.184Z,16.75
2023-12-13T21:07:41.250Z,10.45
2023-12-13T21:10:10.204Z,16.63
2023-12-13T21:12:37.938Z,19.02
2023-12-13T21:15:08.131Z,23.10
2023-12-13T21:17:39.129Z,21.60
2023-12-13T21:20:08.123Z,20.15
2023-12-13T21:22:36.290Z,11.82
2023-12-13T21:25:04.601Z,17.50
2023-12-13T21:27:32.876Z,16.23
2023-12-13T21:30:04.989Z,14.52
2023-12-13T21:32:34.329Z,13.70
2023-12-13T21:35:04.360Z,14.23
2023-12-13T21:37:32.547Z,9.93
2023-12-13T21:40:00.478Z,12.55
2023-12-13T21:42:28.184Z,10.93
2023-12-13T21:44:55.922Z,9.60
2023-12-13T21:47:26.381Z,13.15
2023-12-13T21:49:54.229Z,17.13
2023-12-13T21:52:23.334Z,13.07
2023-12-13T21:54:51.052Z,11.48
2023-12-13T21:57:18.802Z,13.10
2023-12-13T21:59:46.540Z,8.25
2023-12-13T22:02:14.402Z,14.13
2023-12-13T22:04:42.208Z,16.17
2023-12-13T22:07:10.214Z,18.13
2023-12-13T22:09:39.326Z,21.45
2023-12-13T22:12:08.469Z,14.75
2023-12-13T22:14:36.264Z,20.77
2023-12-13T22:17:04.987Z,15.85
2023-12-13T22:19:48.734Z,14.10
2023-12-13T22:22:18.186Z,14.98
2023-12-13T22:24:49.044Z,15.07
2023-12-13T22:27:16.861Z,16.85
2023-12-13T22:29:44.741Z,26.55
2023-12-13T22:32:12.940Z,16.08
2023-12-13T22:34:40.819Z,17.52
2023-12-13T22:37:08.584Z,19.40
2023-12-13T22:39:36.323Z,22.88
2023-12-13T22:42:06.080Z,16.95
2023-12-13T22:44:33.806Z,15.98
2023-12-13T22:47:01.613Z,15.75
2023-12-13T22:49:29.461Z,16.30
2023-12-13T22:52:19.278Z,13.43
2023-12-13T22:54:44.955Z,12.65
2023-12-13T22:57:14.073Z,14.10
2023-12-13T22:59:41.910Z,12.77
2023-12-13T23:02:09.682Z,19.52
2023-12-13T23:04:37.534Z,17.35
2023-12-13T23:07:05.619Z,21.00
2023-12-13T23:09:33.415Z,24.63
2023-12-13T23:12:01.157Z,15.27
2023-12-13T23:14:30.263Z,22.30
2023-12-13T23:17:00.354Z,25.33
2023-12-13T23:19:28.428Z,16.75
2023-12-13T23:21:56.170Z,17.35
2023-12-13T23:24:23.938Z,15.90
2023-12-13T23:26:51.873Z,5.47
2023-12-13T23:29:19.643Z,19.17
2023-12-13T23:31:48.827Z,14.52
2023-12-13T23:34:16.593Z,11.98
2023-12-13T23:36:44.332Z,19.55
2023-12-13T23:39:12.078Z,13.25
2023-12-13T23:41:39.824Z,12.38
2023-12-13T23:44:07.664Z,15.45
2023-12-13T23:46:35.501Z,14.13
2023-12-13T23:49:04.661Z,14.05
2023-12-13T23:51:32.482Z,14.70
2023-12-13T23:54:00.288Z,7.32
2023-12-13T23:56:28.059Z,11.90
2023-12-13T23:58:55.834Z,12.18
